sensor_id;sensor_type;location;lat;lon;timestamp;P1;durP1;ratioP1;P2;durP2;ratioP2
66946;SDS011;53853;51.982;5.928;2022-09-12T00:01:05;12.35;;;11.10;;
66946;SDS011;53853;51.982;5.928;2022-09-12T00:03:37;11.20;;;9.85;;
66946;SDS011;53853;51.982;5.928;2022-09-12T00:06:09;11.95;;;10.70;;
66946;SDS011;53853;51.982;5.928;2022-09-12T00:08:40;12.77;;;11.32;;
66946;SDS011;53853;51.982;5.928;2022-09-12T00:11:11;11.23;;;10.13;;
66946;SDS011;53853;51.982;5.928;2022-09-12T00:13:41;13.23;;;11.82;;
66946;SDS011;53853;51.982;5.928;2022-09-12T00:16:18;12.63;;;11.43;;
66946;SDS011;53853;51.982;5.928;2022-09-12T00:18:49;12.60;;;10.80;;
66946;SDS011;53853;51.982;5.928;2022-09-12T00:21:20;11.13;;;10.02;;
66946;SDS011;53853;51.982;5.928;2022-09-12T00:23:51;13.32;;;11.75;;
66946;SDS011;53853;51.982;5.928;2022-09-12T00:26:20;13.80;;;12.40;;
66946;SDS011;53853;51.982;5.928;2022-09-12T00:28:50;13.00;;;11.70;;
66946;SDS011;53853;51.982;5.928;2022-09-12T00:31:24;12.77;;;11.48;;
66946;SDS011;53853;51.982;5.928;2022-09-12T00:33:55;12.02;;;10.52;;
66946;SDS011;53853;51.982;5.928;2022-09-12T00:36:28;11.50;;;10.32;;
66946;SDS011;53853;51.982;5.928;2022-09-12T00:38:58;14.10;;;12.23;;
66946;SDS011;53853;51.982;5.928;2022-09-12T00:41:28;13.48;;;12.02;;
66946;SDS011;53853;51.982;5.928;2022-09-12T00:44:01;11.55;;;10.35;;
66946;SDS011;53853;51.982;5.928;2022-09-12T00:46:54;10.75;;;9.63;;
66946;SDS011;53853;51.982;5.928;2022-09-12T00:49:28;9.65;;;8.65;;
66946;SDS011;53853;51.982;5.928;2022-09-12T00:52:02;10.33;;;8.57;;
66946;SDS011;53853;51.982;5.928;2022-09-12T00:54:37;10.85;;;9.75;;
66946;SDS011;53853;51.982;5.928;2022-09-12T00:57:10;12.82;;;11.52;;
66946;SDS011;53853;51.982;5.928;2022-09-12T00:59:44;11.38;;;9.52;;
66946;SDS011;53853;51.982;5.928;2022-09-12T01:02:20;6.65;;;5.57;;
66946;SDS011;53853;51.982;5.928;2022-09-12T01:04:50;9.45;;;8.48;;
66946;SDS011;53853;51.982;5.928;2022-09-12T01:07:20;10.65;;;9.55;;
66946;SDS011;53853;51.982;5.928;2022-09-12T01:09:50;14.38;;;12.07;;
66946;SDS011;53853;51.982;5.928;2022-09-12T01:12:20;12.02;;;10.82;;
66946;SDS011;53853;51.982;5.928;2022-09-12T01:14:50;12.25;;;10.95;;
66946;SDS011;53853;51.982;5.928;2022-09-12T01:17:22;11.73;;;10.52;;
66946;SDS011;53853;51.982;5.928;2022-09-12T01:20:07;14.32;;;12.82;;
66946;SDS011;53853;51.982;5.928;2022-09-12T01:23:09;16.55;;;14.73;;
66946;SDS011;53853;51.982;5.928;2022-09-12T01:26:06;11.93;;;10.73;;
66946;SDS011;53853;51.982;5.928;2022-09-12T01:28:57;15.48;;;13.27;;
66946;SDS011;53853;51.982;5.928;2022-09-12T01:31:44;15.65;;;13.73;;
66946;SDS011;53853;51.982;5.928;2022-09-12T01:34:21;13.85;;;12.23;;
66946;SDS011;53853;51.982;5.928;2022-09-12T01:36:56;15.43;;;13.80;;
66946;SDS011;53853;51.982;5.928;2022-09-12T01:42:12;16.48;;;14.77;;
66946;SDS011;53853;51.982;5.928;2022-09-12T01:44:52;19.42;;;16.30;;
66946;SDS011;53853;51.982;5.928;2022-09-12T01:47:33;14.68;;;13.10;;
66946;SDS011;53853;51.982;5.928;2022-09-12T01:50:09;14.75;;;12.93;;
66946;SDS011;53853;51.982;5.928;2022-09-12T01:52:44;14.60;;;12.80;;
66946;SDS011;53853;51.982;5.928;2022-09-12T01:55:19;15.65;;;13.98;;
66946;SDS011;53853;51.982;5.928;2022-09-12T01:57:53;15.93;;;13.85;;
66946;SDS011;53853;51.982;5.928;2022-09-12T02:00:26;21.05;;;18.70;;
66946;SDS011;53853;51.982;5.928;2022-09-12T02:02:59;18.10;;;14.85;;
66946;SDS011;53853;51.982;5.928;2022-09-12T02:05:35;14.88;;;13.27;;
66946;SDS011;53853;51.982;5.928;2022-09-12T02:08:08;20.97;;;15.43;;
66946;SDS011;53853;51.982;5.928;2022-09-12T02:10:42;20.17;;;16.98;;
66946;SDS011;53853;51.982;5.928;2022-09-12T02:13:15;19.02;;;17.02;;
66946;SDS011;53853;51.982;5.928;2022-09-12T02:15:50;20.38;;;17.55;;
66946;SDS011;53853;51.982;5.928;2022-09-12T02:18:25;21.27;;;18.98;;
66946;SDS011;53853;51.982;5.928;2022-09-12T02:20:59;18.27;;;16.00;;
66946;SDS011;53853;51.982;5.928;2022-09-12T02:23:33;16.30;;;14.52;;
66946;SDS011;53853;51.982;5.928;2022-09-12T02:26:09;21.42;;;19.13;;
66946;SDS011;53853;51.982;5.928;2022-09-12T02:28:48;21.00;;;18.75;;
66946;SDS011;53853;51.982;5.928;2022-09-12T02:31:19;16.52;;;14.63;;
66946;SDS011;53853;51.982;5.928;2022-09-12T02:34:00;21.15;;;18.10;;
66946;SDS011;53853;51.982;5.928;2022-09-12T02:36:41;21.88;;;19.50;;
66946;SDS011;53853;51.982;5.928;2022-09-12T02:39:17;19.75;;;17.75;;
66946;SDS011;53853;51.982;5.928;2022-09-12T02:41:49;20.27;;;18.10;;
66946;SDS011;53853;51.982;5.928;2022-09-12T02:44:21;19.55;;;17.42;;
66946;SDS011;53853;51.982;5.928;2022-09-12T02:46:53;20.30;;;18.10;;
66946;SDS011;53853;51.982;5.928;2022-09-12T02:49:29;20.50;;;18.30;;
66946;SDS011;53853;51.982;5.928;2022-09-12T02:51:59;22.08;;;19.75;;
66946;SDS011;53853;51.982;5.928;2022-09-12T02:54:30;23.20;;;20.35;;
66946;SDS011;53853;51.982;5.928;2022-09-12T02:57:00;21.13;;;17.92;;
66946;SDS011;53853;51.982;5.928;2022-09-12T02:59:30;20.40;;;16.70;;
66946;SDS011;53853;51.982;5.928;2022-09-12T03:02:03;19.67;;;17.33;;
66946;SDS011;53853;51.982;5.928;2022-09-12T03:04:57;18.17;;;16.33;;
66946;SDS011;53853;51.982;5.928;2022-09-12T03:07:56;19.42;;;17.02;;
66946;SDS011;53853;51.982;5.928;2022-09-12T03:10:50;18.55;;;15.45;;
66946;SDS011;53853;51.982;5.928;2022-09-12T03:13:37;13.82;;;12.35;;
66946;SDS011;53853;51.982;5.928;2022-09-12T03:16:14;19.30;;;15.93;;
66946;SDS011;53853;51.982;5.928;2022-09-12T03:18:50;17.08;;;14.38;;
66946;SDS011;53853;51.982;5.928;2022-09-12T03:21:30;14.13;;;11.77;;
66946;SDS011;53853;51.982;5.928;2022-09-12T03:24:10;16.63;;;14.45;;
66946;SDS011;53853;51.982;5.928;2022-09-12T03:26:44;21.58;;;19.20;;
66946;SDS011;53853;51.982;5.928;2022-09-12T03:29:20;19.23;;;17.20;;
66946;SDS011;53853;51.982;5.928;2022-09-12T03:31:54;23.73;;;20.70;;
66946;SDS011;53853;51.982;5.928;2022-09-12T03:34:25;20.08;;;17.95;;
66946;SDS011;53853;51.982;5.928;2022-09-12T03:36:58;19.95;;;17.80;;
66946;SDS011;53853;51.982;5.928;2022-09-12T03:39:28;19.70;;;17.60;;
66946;SDS011;53853;51.982;5.928;2022-09-12T03:41:58;21.92;;;18.88;;
66946;SDS011;53853;51.982;5.928;2022-09-12T03:44:28;25.20;;;20.02;;
66946;SDS011;53853;51.982;5.928;2022-09-12T03:46:58;22.83;;;19.85;;
66946;SDS011;53853;51.982;5.928;2022-09-12T03:49:28;25.50;;;21.33;;
66946;SDS011;53853;51.982;5.928;2022-09-12T03:52:00;23.08;;;19.88;;
66946;SDS011;53853;51.982;5.928;2022-09-12T03:54:30;23.40;;;20.88;;
66946;SDS011;53853;51.982;5.928;2022-09-12T03:57:00;23.25;;;19.50;;
66946;SDS011;53853;51.982;5.928;2022-09-12T03:59:30;19.35;;;16.92;;
66946;SDS011;53853;51.982;5.928;2022-09-12T04:02:00;20.10;;;17.90;;
66946;SDS011;53853;51.982;5.928;2022-09-12T04:04:30;22.88;;;20.10;;
66946;SDS011;53853;51.982;5.928;2022-09-12T04:07:02;19.23;;;17.13;;
66946;SDS011;53853;51.982;5.928;2022-09-12T04:09:32;21.38;;;18.55;;
66946;SDS011;53853;51.982;5.928;2022-09-12T04:12:02;22.90;;;20.35;;
66946;SDS011;53853;51.982;5.928;2022-09-12T04:14:33;24.30;;;20.88;;
66946;SDS011;53853;51.982;5.928;2022-09-12T04:17:03;21.02;;;18.83;;
66946;SDS011;53853;51.982;5.928;2022-09-12T04:19:33;20.50;;;17.65;;
66946;SDS011;53853;51.982;5.928;2022-09-12T04:22:05;18.73;;;15.68;;
66946;SDS011;53853;51.982;5.928;2022-09-12T04:24:35;19.85;;;15.55;;
66946;SDS011;53853;51.982;5.928;2022-09-12T04:27:05;20.48;;;17.60;;
66946;SDS011;53853;51.982;5.928;2022-09-12T04:29:35;19.23;;;16.45;;
66946;SDS011;53853;51.982;5.928;2022-09-12T04:32:05;18.08;;;15.80;;
66946;SDS011;53853;51.982;5.928;2022-09-12T04:34:34;17.63;;;15.10;;
66946;SDS011;53853;51.982;5.928;2022-09-12T04:37:07;16.00;;;13.90;;
66946;SDS011;53853;51.982;5.928;2022-09-12T04:39:37;18.02;;;15.65;;
66946;SDS011;53853;51.982;5.928;2022-09-12T04:42:07;20.10;;;15.40;;
66946;SDS011;53853;51.982;5.928;2022-09-12T04:44:37;19.40;;;17.10;;
66946;SDS011;53853;51.982;5.928;2022-09-12T04:47:07;20.55;;;18.20;;
66946;SDS011;53853;51.982;5.928;2022-09-12T04:49:36;24.92;;;20.92;;
66946;SDS011;53853;51.982;5.928;2022-09-12T04:52:09;23.65;;;19.92;;
66946;SDS011;53853;51.982;5.928;2022-09-12T04:54:39;30.15;;;22.35;;
66946;SDS011;53853;51.982;5.928;2022-09-12T04:57:09;25.25;;;20.77;;
66946;SDS011;53853;51.982;5.928;2022-09-12T04:59:39;20.88;;;18.02;;
66946;SDS011;53853;51.982;5.928;2022-09-12T05:02:09;20.20;;;17.52;;
66946;SDS011;53853;51.982;5.928;2022-09-12T05:04:39;18.35;;;15.48;;
66946;SDS011;53853;51.982;5.928;2022-09-12T05:07:11;18.30;;;14.40;;
66946;SDS011;53853;51.982;5.928;2022-09-12T05:09:41;21.58;;;16.50;;
66946;SDS011;53853;51.982;5.928;2022-09-12T05:12:10;22.52;;;19.40;;
66946;SDS011;53853;51.982;5.928;2022-09-12T05:14:41;23.98;;;18.98;;
66946;SDS011;53853;51.982;5.928;2022-09-12T05:17:10;26.83;;;20.88;;
66946;SDS011;53853;51.982;5.928;2022-09-12T05:19:40;23.65;;;19.70;;
66946;SDS011;53853;51.982;5.928;2022-09-12T05:22:13;24.58;;;18.10;;
66946;SDS011;53853;51.982;5.928;2022-09-12T05:24:43;23.80;;;19.90;;
66946;SDS011;53853;51.982;5.928;2022-09-12T05:27:13;21.42;;;17.38;;
66946;SDS011;53853;51.982;5.928;2022-09-12T05:29:43;23.58;;;18.85;;
66946;SDS011;53853;51.982;5.928;2022-09-12T05:32:13;23.90;;;19.88;;
66946;SDS011;53853;51.982;5.928;2022-09-12T05:34:43;27.05;;;19.30;;
66946;SDS011;53853;51.982;5.928;2022-09-12T05:37:17;22.95;;;19.63;;
66946;SDS011;53853;51.982;5.928;2022-09-12T05:39:47;25.27;;;20.50;;
66946;SDS011;53853;51.982;5.928;2022-09-12T05:42:17;24.10;;;19.67;;
66946;SDS011;53853;51.982;5.928;2022-09-12T05:44:48;27.50;;;21.25;;
66946;SDS011;53853;51.982;5.928;2022-09-12T05:47:18;24.98;;;19.73;;
66946;SDS011;53853;51.982;5.928;2022-09-12T05:49:48;23.92;;;17.38;;
66946;SDS011;53853;51.982;5.928;2022-09-12T05:52:21;22.52;;;17.50;;
66946;SDS011;53853;51.982;5.928;2022-09-12T05:54:51;23.48;;;20.52;;
66946;SDS011;53853;51.982;5.928;2022-09-12T05:57:20;23.73;;;18.38;;
66946;SDS011;53853;51.982;5.928;2022-09-12T05:59:50;18.73;;;15.73;;
66946;SDS011;53853;51.982;5.928;2022-09-12T06:02:20;15.50;;;13.57;;
66946;SDS011;53853;51.982;5.928;2022-09-12T06:04:51;23.90;;;17.17;;
66946;SDS011;53853;51.982;5.928;2022-09-12T06:07:23;25.55;;;19.30;;
66946;SDS011;53853;51.982;5.928;2022-09-12T06:09:54;27.03;;;20.43;;
66946;SDS011;53853;51.982;5.928;2022-09-12T06:12:27;26.73;;;20.77;;
66946;SDS011;53853;51.982;5.928;2022-09-12T06:14:57;24.33;;;18.60;;
66946;SDS011;53853;51.982;5.928;2022-09-12T06:17:27;26.95;;;21.70;;
66946;SDS011;53853;51.982;5.928;2022-09-12T06:19:57;29.33;;;22.58;;
66946;SDS011;53853;51.982;5.928;2022-09-12T06:22:29;24.88;;;18.42;;
66946;SDS011;53853;51.982;5.928;2022-09-12T06:24:59;23.20;;;18.38;;
66946;SDS011;53853;51.982;5.928;2022-09-12T06:27:29;22.10;;;17.95;;
66946;SDS011;53853;51.982;5.928;2022-09-12T06:29:59;37.40;;;29.77;;
66946;SDS011;53853;51.982;5.928;2022-09-12T06:32:30;44.13;;;33.13;;
66946;SDS011;53853;51.982;5.928;2022-09-12T06:34:59;25.80;;;21.70;;
66946;SDS011;53853;51.982;5.928;2022-09-12T06:37:32;27.45;;;22.00;;
66946;SDS011;53853;51.982;5.928;2022-09-12T06:40:02;24.85;;;18.95;;
66946;SDS011;53853;51.982;5.928;2022-09-12T06:42:34;22.08;;;17.55;;
66946;SDS011;53853;51.982;5.928;2022-09-12T06:45:05;26.40;;;20.77;;
66946;SDS011;53853;51.982;5.928;2022-09-12T06:47:36;28.42;;;22.05;;
66946;SDS011;53853;51.982;5.928;2022-09-12T06:50:06;26.23;;;22.10;;
66946;SDS011;53853;51.982;5.928;2022-09-12T06:52:39;27.58;;;21.90;;
66946;SDS011;53853;51.982;5.928;2022-09-12T06:55:09;32.25;;;24.25;;
66946;SDS011;53853;51.982;5.928;2022-09-12T06:57:39;25.80;;;21.25;;
66946;SDS011;53853;51.982;5.928;2022-09-12T07:00:10;26.95;;;21.92;;
66946;SDS011;53853;51.982;5.928;2022-09-12T07:02:40;24.98;;;20.30;;
66946;SDS011;53853;51.982;5.928;2022-09-12T07:05:10;26.60;;;21.35;;
66946;SDS011;53853;51.982;5.928;2022-09-12T07:07:43;29.60;;;22.30;;
66946;SDS011;53853;51.982;5.928;2022-09-12T07:10:13;26.92;;;21.77;;
66946;SDS011;53853;51.982;5.928;2022-09-12T07:12:43;29.83;;;22.80;;
66946;SDS011;53853;51.982;5.928;2022-09-12T07:15:12;37.65;;;26.35;;
66946;SDS011;53853;51.982;5.928;2022-09-12T07:17:43;31.98;;;22.80;;
66946;SDS011;53853;51.982;5.928;2022-09-12T07:20:13;30.83;;;22.23;;
66946;SDS011;53853;51.982;5.928;2022-09-12T07:22:46;29.73;;;22.75;;
66946;SDS011;53853;51.982;5.928;2022-09-12T07:25:15;38.95;;;30.85;;
66946;SDS011;53853;51.982;5.928;2022-09-12T07:27:45;39.83;;;30.35;;
66946;SDS011;53853;51.982;5.928;2022-09-12T07:30:15;49.25;;;34.95;;
66946;SDS011;53853;51.982;5.928;2022-09-12T07:32:45;48.83;;;35.65;;
66946;SDS011;53853;51.982;5.928;2022-09-12T07:35:15;35.05;;;26.00;;
66946;SDS011;53853;51.982;5.928;2022-09-12T07:37:48;33.08;;;24.92;;
66946;SDS011;53853;51.982;5.928;2022-09-12T07:40:17;45.20;;;30.98;;
66946;SDS011;53853;51.982;5.928;2022-09-12T07:42:47;48.60;;;33.58;;
66946;SDS011;53853;51.982;5.928;2022-09-12T07:45:17;31.05;;;23.20;;
66946;SDS011;53853;51.982;5.928;2022-09-12T07:47:47;40.33;;;29.75;;
66946;SDS011;53853;51.982;5.928;2022-09-12T07:50:20;29.27;;;20.90;;
66946;SDS011;53853;51.982;5.928;2022-09-12T07:52:54;45.58;;;34.45;;
66946;SDS011;53853;51.982;5.928;2022-09-12T07:57:54;46.83;;;35.92;;
66946;SDS011;53853;51.982;5.928;2022-09-12T08:00:23;54.30;;;37.88;;
66946;SDS011;53853;51.982;5.928;2022-09-12T08:03:00;40.30;;;32.00;;
66946;SDS011;53853;51.982;5.928;2022-09-12T08:05:32;39.10;;;29.63;;
66946;SDS011;53853;51.982;5.928;2022-09-12T08:08:04;38.70;;;28.35;;
66946;SDS011;53853;51.982;5.928;2022-09-12T08:10:34;41.58;;;31.30;;
66946;SDS011;53853;51.982;5.928;2022-09-12T08:13:04;47.20;;;33.75;;
66946;SDS011;53853;51.982;5.928;2022-09-12T08:15:34;40.60;;;31.88;;
66946;SDS011;53853;51.982;5.928;2022-09-12T08:18:04;47.38;;;36.90;;
66946;SDS011;53853;51.982;5.928;2022-09-12T08:20:34;44.95;;;33.70;;
66946;SDS011;53853;51.982;5.928;2022-09-12T08:23:06;41.00;;;32.45;;
66946;SDS011;53853;51.982;5.928;2022-09-12T08:25:36;37.92;;;29.13;;
66946;SDS011;53853;51.982;5.928;2022-09-12T08:28:06;41.45;;;30.42;;
66946;SDS011;53853;51.982;5.928;2022-09-12T08:30:36;38.42;;;28.50;;
66946;SDS011;53853;51.982;5.928;2022-09-12T08:33:06;26.80;;;19.88;;
66946;SDS011;53853;51.982;5.928;2022-09-12T08:35:36;33.05;;;24.92;;
66946;SDS011;53853;51.982;5.928;2022-09-12T08:38:08;18.40;;;15.07;;
66946;SDS011;53853;51.982;5.928;2022-09-12T08:40:41;39.38;;;29.70;;
66946;SDS011;53853;51.982;5.928;2022-09-12T08:43:23;43.90;;;35.30;;
66946;SDS011;53853;51.982;5.928;2022-09-12T08:46:03;44.20;;;35.67;;
66946;SDS011;53853;51.982;5.928;2022-09-12T08:48:42;31.27;;;24.85;;
66946;SDS011;53853;51.982;5.928;2022-09-12T08:51:17;39.50;;;30.55;;
66946;SDS011;53853;51.982;5.928;2022-09-12T08:53:51;33.33;;;26.23;;
66946;SDS011;53853;51.982;5.928;2022-09-12T08:56:22;34.92;;;26.08;;
66946;SDS011;53853;51.982;5.928;2022-09-12T08:58:55;18.40;;;15.57;;
66946;SDS011;53853;51.982;5.928;2022-09-12T09:01:26;34.45;;;26.95;;
66946;SDS011;53853;51.982;5.928;2022-09-12T09:04:15;33.38;;;27.27;;
66946;SDS011;53853;51.982;5.928;2022-09-12T09:07:01;23.17;;;17.58;;
66946;SDS011;53853;51.982;5.928;2022-09-12T09:09:59;34.72;;;27.08;;
66946;SDS011;53853;51.982;5.928;2022-09-12T09:12:40;34.03;;;25.58;;
66946;SDS011;53853;51.982;5.928;2022-09-12T09:15:22;22.38;;;19.30;;
66946;SDS011;53853;51.982;5.928;2022-09-12T09:18:04;18.33;;;13.32;;
66946;SDS011;53853;51.982;5.928;2022-09-12T09:20:43;17.08;;;14.13;;
66946;SDS011;53853;51.982;5.928;2022-09-12T09:23:19;18.50;;;14.93;;
66946;SDS011;53853;51.982;5.928;2022-09-12T09:25:57;11.68;;;9.23;;
66946;SDS011;53853;51.982;5.928;2022-09-12T09:28:33;25.77;;;21.92;;
66946;SDS011;53853;51.982;5.928;2022-09-12T09:31:11;26.42;;;22.55;;
66946;SDS011;53853;51.982;5.928;2022-09-12T09:33:43;24.25;;;18.88;;
66946;SDS011;53853;51.982;5.928;2022-09-12T09:36:18;21.70;;;18.52;;
66946;SDS011;53853;51.982;5.928;2022-09-12T09:38:52;25.08;;;20.17;;
66946;SDS011;53853;51.982;5.928;2022-09-12T09:41:36;17.55;;;14.40;;
66946;SDS011;53853;51.982;5.928;2022-09-12T09:44:13;15.68;;;12.85;;
66946;SDS011;53853;51.982;5.928;2022-09-12T09:46:43;19.73;;;14.98;;
66946;SDS011;53853;51.982;5.928;2022-09-12T09:49:14;21.05;;;18.17;;
66946;SDS011;53853;51.982;5.928;2022-09-12T09:51:45;27.05;;;21.48;;
66946;SDS011;53853;51.982;5.928;2022-09-12T09:54:17;25.90;;;20.52;;
66946;SDS011;53853;51.982;5.928;2022-09-12T09:56:52;15.98;;;13.85;;
66946;SDS011;53853;51.982;5.928;2022-09-12T09:59:25;15.02;;;13.05;;
66946;SDS011;53853;51.982;5.928;2022-09-12T10:01:56;12.50;;;10.70;;
66946;SDS011;53853;51.982;5.928;2022-09-12T10:04:29;22.88;;;19.20;;
66946;SDS011;53853;51.982;5.928;2022-09-12T10:07:02;14.90;;;12.55;;
66946;SDS011;53853;51.982;5.928;2022-09-12T10:09:33;20.92;;;16.33;;
66946;SDS011;53853;51.982;5.928;2022-09-12T10:14:56;20.48;;;16.70;;
66946;SDS011;53853;51.982;5.928;2022-09-12T10:17:28;17.80;;;13.85;;
66946;SDS011;53853;51.982;5.928;2022-09-12T10:19:59;13.27;;;11.80;;
66946;SDS011;53853;51.982;5.928;2022-09-12T10:22:30;15.43;;;13.43;;
66946;SDS011;53853;51.982;5.928;2022-09-12T10:25:00;8.73;;;7.55;;
66946;SDS011;53853;51.982;5.928;2022-09-12T10:27:40;14.65;;;13.15;;
66946;SDS011;53853;51.982;5.928;2022-09-12T10:30:15;10.57;;;9.30;;
66946;SDS011;53853;51.982;5.928;2022-09-12T10:32:47;11.68;;;9.48;;
66946;SDS011;53853;51.982;5.928;2022-09-12T10:35:19;11.13;;;10.02;;
66946;SDS011;53853;51.982;5.928;2022-09-12T10:37:51;15.82;;;9.75;;
66946;SDS011;53853;51.982;5.928;2022-09-12T10:40:24;8.68;;;7.72;;
66946;SDS011;53853;51.982;5.928;2022-09-12T10:43:00;6.88;;;5.90;;
66946;SDS011;53853;51.982;5.928;2022-09-12T10:45:43;8.50;;;6.85;;
66946;SDS011;53853;51.982;5.928;2022-09-12T10:48:24;8.65;;;7.15;;
66946;SDS011;53853;51.982;5.928;2022-09-12T10:50:56;7.50;;;6.18;;
66946;SDS011;53853;51.982;5.928;2022-09-12T10:53:27;11.50;;;8.82;;
66946;SDS011;53853;51.982;5.928;2022-09-12T10:56:04;5.93;;;4.75;;
66946;SDS011;53853;51.982;5.928;2022-09-12T11:01:40;7.90;;;6.82;;
66946;SDS011;53853;51.982;5.928;2022-09-12T11:07:09;5.88;;;5.28;;
66946;SDS011;53853;51.982;5.928;2022-09-12T11:09:57;10.63;;;7.95;;
66946;SDS011;53853;51.982;5.928;2022-09-12T11:12:35;8.00;;;5.78;;
66946;SDS011;53853;51.982;5.928;2022-09-12T11:15:23;5.72;;;3.92;;
66946;SDS011;53853;51.982;5.928;2022-09-12T11:18:15;9.65;;;6.57;;
66946;SDS011;53853;51.982;5.928;2022-09-12T11:21:02;8.85;;;7.45;;
66946;SDS011;53853;51.982;5.928;2022-09-12T11:23:52;8.43;;;7.63;;
66946;SDS011;53853;51.982;5.928;2022-09-12T11:26:43;8.57;;;7.43;;
66946;SDS011;53853;51.982;5.928;2022-09-12T11:29:25;9.20;;;7.38;;
66946;SDS011;53853;51.982;5.928;2022-09-12T11:35:11;8.02;;;6.82;;
66946;SDS011;53853;51.982;5.928;2022-09-12T11:38:02;7.72;;;6.82;;
66946;SDS011;53853;51.982;5.928;2022-09-12T11:40:45;6.68;;;5.68;;
66946;SDS011;53853;51.982;5.928;2022-09-12T11:43:25;8.88;;;5.88;;
66946;SDS011;53853;51.982;5.928;2022-09-12T11:46:04;8.57;;;6.22;;
66946;SDS011;53853;51.982;5.928;2022-09-12T11:48:43;7.43;;;5.95;;
66946;SDS011;53853;51.982;5.928;2022-09-12T11:51:20;7.72;;;5.85;;
66946;SDS011;53853;51.982;5.928;2022-09-12T11:53:58;6.18;;;4.50;;
66946;SDS011;53853;51.982;5.928;2022-09-12T11:56:32;7.95;;;5.50;;
66946;SDS011;53853;51.982;5.928;2022-09-12T11:59:08;7.85;;;6.90;;
66946;SDS011;53853;51.982;5.928;2022-09-12T12:01:44;5.13;;;4.00;;
66946;SDS011;53853;51.982;5.928;2022-09-12T12:04:21;5.72;;;5.13;;
66946;SDS011;53853;51.982;5.928;2022-09-12T12:07:00;5.50;;;4.40;;
66946;SDS011;53853;51.982;5.928;2022-09-12T12:09:33;6.68;;;5.93;;
66946;SDS011;53853;51.982;5.928;2022-09-12T12:12:04;7.55;;;4.82;;
66946;SDS011;53853;51.982;5.928;2022-09-12T12:14:40;11.20;;;6.70;;
66946;SDS011;53853;51.982;5.928;2022-09-12T12:17:13;9.35;;;6.70;;
66946;SDS011;53853;51.982;5.928;2022-09-12T12:19:55;9.10;;;6.57;;
66946;SDS011;53853;51.982;5.928;2022-09-12T12:22:27;5.32;;;4.13;;
66946;SDS011;53853;51.982;5.928;2022-09-12T12:25:13;7.72;;;4.65;;
66946;SDS011;53853;51.982;5.928;2022-09-12T12:27:53;6.55;;;5.55;;
66946;SDS011;53853;51.982;5.928;2022-09-12T12:36:45;8.15;;;5.28;;
66946;SDS011;53853;51.982;5.928;2022-09-12T12:45:47;5.38;;;4.50;;
66946;SDS011;53853;51.982;5.928;2022-09-12T12:54:25;8.85;;;7.47;;
66946;SDS011;53853;51.982;5.928;2022-09-12T12:57:00;8.05;;;7.25;;
66946;SDS011;53853;51.982;5.928;2022-09-12T12:59:46;6.22;;;5.05;;
66946;SDS011;53853;51.982;5.928;2022-09-12T13:02:20;6.03;;;5.00;;
66946;SDS011;53853;51.982;5.928;2022-09-12T13:04:55;5.60;;;4.40;;
66946;SDS011;53853;51.982;5.928;2022-09-12T13:07:29;5.38;;;3.53;;
66946;SDS011;53853;51.982;5.928;2022-09-12T13:10:03;9.93;;;6.20;;
66946;SDS011;53853;51.982;5.928;2022-09-12T13:12:37;5.10;;;4.13;;
66946;SDS011;53853;51.982;5.928;2022-09-12T13:18:16;6.93;;;4.82;;
66946;SDS011;53853;51.982;5.928;2022-09-12T13:20:53;8.18;;;4.80;;
66946;SDS011;53853;51.982;5.928;2022-09-12T13:23:30;7.60;;;5.20;;
66946;SDS011;53853;51.982;5.928;2022-09-12T13:26:09;5.80;;;4.65;;
66946;SDS011;53853;51.982;5.928;2022-09-12T13:28:39;4.85;;;3.50;;
66946;SDS011;53853;51.982;5.928;2022-09-12T13:31:11;6.45;;;5.00;;
66946;SDS011;53853;51.982;5.928;2022-09-12T13:33:46;6.15;;;4.82;;
66946;SDS011;53853;51.982;5.928;2022-09-12T13:36:26;5.53;;;4.15;;
66946;SDS011;53853;51.982;5.928;2022-09-12T13:39:12;5.65;;;4.15;;
66946;SDS011;53853;51.982;5.928;2022-09-12T13:41:49;4.30;;;2.78;;
66946;SDS011;53853;51.982;5.928;2022-09-12T13:44:36;5.00;;;4.50;;
66946;SDS011;53853;51.982;5.928;2022-09-12T13:47:12;6.25;;;5.25;;
66946;SDS011;53853;51.982;5.928;2022-09-12T13:49:45;5.15;;;3.58;;
66946;SDS011;53853;51.982;5.928;2022-09-12T13:52:16;4.22;;;3.30;;
66946;SDS011;53853;51.982;5.928;2022-09-12T13:54:49;4.20;;;3.38;;
66946;SDS011;53853;51.982;5.928;2022-09-12T13:57:31;5.27;;;3.60;;
66946;SDS011;53853;51.982;5.928;2022-09-12T14:00:04;2.97;;;2.03;;
66946;SDS011;53853;51.982;5.928;2022-09-12T14:02:47;5.07;;;4.07;;
66946;SDS011;53853;51.982;5.928;2022-09-12T14:05:37;6.90;;;4.45;;
66946;SDS011;53853;51.982;5.928;2022-09-12T14:08:10;3.30;;;2.60;;
66946;SDS011;53853;51.982;5.928;2022-09-12T14:10:44;7.22;;;4.55;;
66946;SDS011;53853;51.982;5.928;2022-09-12T14:13:18;4.30;;;3.60;;
66946;SDS011;53853;51.982;5.928;2022-09-12T14:15:51;3.63;;;2.63;;
66946;SDS011;53853;51.982;5.928;2022-09-12T14:18:25;6.25;;;4.35;;
66946;SDS011;53853;51.982;5.928;2022-09-12T14:21:00;6.65;;;4.47;;
66946;SDS011;53853;51.982;5.928;2022-09-12T14:23:38;5.80;;;3.65;;
66946;SDS011;53853;51.982;5.928;2022-09-12T14:26:10;4.55;;;3.20;;
66946;SDS011;53853;51.982;5.928;2022-09-12T14:28:45;2.78;;;1.70;;
66946;SDS011;53853;51.982;5.928;2022-09-12T14:31:22;4.30;;;2.70;;
66946;SDS011;53853;51.982;5.928;2022-09-12T14:34:06;8.02;;;2.70;;
66946;SDS011;53853;51.982;5.928;2022-09-12T14:36:44;4.25;;;3.38;;
66946;SDS011;53853;51.982;5.928;2022-09-12T14:39:20;6.35;;;3.80;;
66946;SDS011;53853;51.982;5.928;2022-09-12T14:41:59;5.15;;;3.58;;
66946;SDS011;53853;51.982;5.928;2022-09-12T14:44:34;4.95;;;3.75;;
66946;SDS011;53853;51.982;5.928;2022-09-12T14:47:12;4.38;;;2.78;;
66946;SDS011;53853;51.982;5.928;2022-09-12T14:49:47;6.13;;;3.65;;
66946;SDS011;53853;51.982;5.928;2022-09-12T14:52:21;4.93;;;3.53;;
66946;SDS011;53853;51.982;5.928;2022-09-12T14:54:54;4.85;;;3.28;;
66946;SDS011;53853;51.982;5.928;2022-09-12T14:57:33;5.72;;;3.45;;
66946;SDS011;53853;51.982;5.928;2022-09-12T15:00:18;3.78;;;3.10;;
66946;SDS011;53853;51.982;5.928;2022-09-12T15:02:51;4.28;;;3.40;;
66946;SDS011;53853;51.982;5.928;2022-09-12T15:05:25;4.18;;;3.30;;
66946;SDS011;53853;51.982;5.928;2022-09-12T15:07:59;4.53;;;2.75;;
66946;SDS011;53853;51.982;5.928;2022-09-12T15:10:30;4.65;;;2.95;;
66946;SDS011;53853;51.982;5.928;2022-09-12T15:13:12;3.75;;;3.35;;
66946;SDS011;53853;51.982;5.928;2022-09-12T15:15:47;4.82;;;2.92;;
66946;SDS011;53853;51.982;5.928;2022-09-12T15:18:19;4.75;;;2.85;;
66946;SDS011;53853;51.982;5.928;2022-09-12T15:20:51;3.72;;;2.40;;
66946;SDS011;53853;51.982;5.928;2022-09-12T15:23:30;5.43;;;2.90;;
66946;SDS011;53853;51.982;5.928;2022-09-12T15:26:05;5.00;;;3.00;;
66946;SDS011;53853;51.982;5.928;2022-09-12T15:28:35;4.05;;;2.20;;
66946;SDS011;53853;51.982;5.928;2022-09-12T15:31:10;4.28;;;3.15;;
66946;SDS011;53853;51.982;5.928;2022-09-12T15:33:46;6.80;;;3.60;;
66946;SDS011;53853;51.982;5.928;2022-09-12T15:36:16;4.68;;;3.47;;
66946;SDS011;53853;51.982;5.928;2022-09-12T15:38:47;4.90;;;3.33;;
66946;SDS011;53853;51.982;5.928;2022-09-12T15:41:18;6.78;;;4.05;;
66946;SDS011;53853;51.982;5.928;2022-09-12T15:43:49;6.43;;;3.45;;
66946;SDS011;53853;51.982;5.928;2022-09-12T15:46:22;3.78;;;2.63;;
66946;SDS011;53853;51.982;5.928;2022-09-12T15:48:52;3.10;;;2.50;;
66946;SDS011;53853;51.982;5.928;2022-09-12T15:51:22;5.15;;;3.53;;